• Join FlightAware (Why Join?)
  • Login
  • US Flag 
12:31AM EST


 

Airport Tracker/Info


-or-


 

Live Flight TrackerFlight Track Log ✈ EJA951 ✈ 01-Nov-2013 ✈ KDAL - KMSY

Flight Track Log - Related Links

Times and Time Zones

All times are in EDT time to prevent confusion due to time zone crossing. See the EJA951 flight status page for this flight to view local times or setup timezone preferences in your user account.

Time Position Orientation Groundspeed Altitude Reporting Facility
EDT Latitude Longitude Course Direction KTS MPH feet Rate Location/Type
05:22PM 32.8667 -96.8667 344° North 176 203 1,700  Level Dallas / Fort Worth TRACON
05:23PM 32.9167 -96.8833 344° North 252 290 5,000 4,118 Climbing Dallas / Fort Worth TRACON
05:24PM 32.9067 -96.7231 94° East 309 356 12,200 3,309 Climbing Fort Worth Center
05:25PM 32.8728 -96.6269 113° Southeast 330 380 14,100 1,750 Climbing Fort Worth Center
05:26PM 32.8217 -96.4989 115° Southeast 373 429 15,700 1,600 Climbing Fort Worth Center
05:27PM 32.7792 -96.3831 114° Southeast 407 468 17,300 1,800 Climbing Fort Worth Center
05:28PM 32.7442 -96.2253 105° East 436 502 19,300 1,900 Climbing Fort Worth Center
05:29PM 32.7197 -96.0725 101° East 465 535 21,100 1,700 Climbing Fort Worth Center
05:30PM 32.6972 -95.9222 100° East 471 542 22,700 1,650 Climbing Fort Worth Center
05:31PM 32.6703 -95.7672 102° East 471 542 24,400 1,700 Climbing Fort Worth Center
05:32PM 32.6575 -95.6072 95° East 477 549 26,100 1,700 Climbing Fort Worth Center
05:33PM 32.6719 -95.4439 84° East 477 549 27,800 1,550 Climbing Fort Worth Center
05:34PM 32.6819 -95.2883 86° East 477 549 29,200 1,350 Climbing Fort Worth Center
05:35PM 32.6936 -95.1225 85° East 484 557 30,500 1,300 Climbing Fort Worth Center
05:36PM 32.7050 -94.9569 85° East 495 570 31,800 1,350 Climbing Fort Worth Center
05:37PM 32.7058 -94.7892 90° East 505 581 33,200 1,300 Climbing Fort Worth Center
05:38PM 32.6606 -94.6250 108° East 499 574 34,400 1,200 Climbing Fort Worth Center
05:39PM 32.6094 -94.4836 113° Southeast 516 594 35,600 1,150 Climbing Fort Worth Center
05:40PM 32.5489 -94.3106 113° Southeast 529 609 36,700 1,100 Climbing Fort Worth Center
05:41PM 32.4925 -94.1475 112° Southeast 534 615 37,800 1,000 Climbing Fort Worth Center
05:42PM 32.4339 -93.9847 113° Southeast 534 615 38,700 950 Climbing Fort Worth Center
05:43PM 32.3750 -93.8197 113° Southeast 534 615 39,700 1,000 Climbing Fort Worth Center
05:44PM 32.3139 -93.6550 114° Southeast 539 620 40,700 462 Climbing Fort Worth Center
05:46PM 32.2158 -93.3694 112° Southeast 551 634 41,000 105 Climbing Houston Center
05:47PM 32.1128 -93.2350 132° Southeast 556 640 41,000  Level Houston Center
05:48PM 32.0047 -93.1078 135° Southeast 550 633 41,000 -194 Level Houston Center
05:49PM 31.8719 -92.9533 135° Southeast 551 634 40,600 -823 Descending Houston Center
05:50PM 31.7631 -92.8250 135° Southeast 552 635 39,300 -1,258 Descending Houston Center
05:51PM 31.6547 -92.6981 135° Southeast 551 634 38,000 -1,258 Descending Houston Center
05:52PM 31.5450 -92.5719 136° Southeast 550 633 36,700 -1,306 Descending Houston Center
05:53PM 31.4364 -92.4450 135° Southeast 550 633 35,300 -1,355 Descending Houston Center
05:54PM 31.3242 -92.3164 136° Southeast 559 643 33,900 -1,392 Descending Houston Center
05:55PM 31.2131 -92.1897 136° Southeast 558 642 32,400 -1,632 Descending Houston Center
05:56PM 31.0797 -92.0353 135° Southeast 560 644 30,500 -1,645 Descending Houston Center
05:57PM 30.9625 -91.9025 136° Southeast 563 648 29,000 -1,645 Descending Houston Center
05:58PM 30.8514 -91.7767 136° Southeast 560 644 27,100 -2,032 Descending Houston Center
06:00PM 30.7478 -91.6592 136° Southeast 525 604 24,800 -2,177 Descending Houston Center
06:01PM 30.6481 -91.5444 135° Southeast 507 583 22,600 -2,129 Descending Houston Center
06:02PM 30.5500 -91.4350 136° Southeast 496 571 20,400 -2,032 Descending Houston Center
06:03PM 30.4528 -91.3283 137° Southeast 483 556 18,400 -2,177 Descending Houston Center
06:04PM 30.3447 -91.2078 136° Southeast 463 533 15,900 -2,417 Descending Houston Center
06:04PM 30.3292 -91.1886 133° Southeast 448 516 15,500 -2,087 Descending Houston Center
06:04PM 30.3161 -91.1722 133° Southeast 446 513 15,100 -1,846 Descending Houston Center
06:05PM 30.2575 -91.1092 137° Southeast 448 516 13,900 -1,808 Descending Houston Center
06:05PM 30.2133 -91.0575 135° Southeast 407 468 12,900 -1,714 Descending Houston Center
06:06PM 30.1800 -91.0236 139° Southeast 413 475 12,100 -2,000 Descending Houston Center
06:06PM 30.1447 -90.9853 137° Southeast 345 397 11,100 -1,935 Descending Houston Center
06:07PM 30.1125 -90.9478 135° Southeast 351 404 10,100 -2,032 Descending Houston Center
06:07PM 30.0803 -90.9153 139° Southeast 311 358 9,000 -1,935 Descending Houston Center
06:08PM 30.0478 -90.8817 138° Southeast 328 377 8,100 -1,800 Descending Houston Center
06:08PM 30.0181 -90.8500 137° Southeast 298 343 7,200 -2,032 Descending Houston Center
06:09PM 29.9897 -90.7969 122° Southeast 304 350 6,000 -1,890 Descending Houston Center
06:09PM 29.9756 -90.7483 109° East 293 337 4,900 -1,742 Descending Houston Center
06:10PM 29.9647 -90.7075 107° East 299 344 4,200 -982 Descending Houston Center
06:10PM 29.9503 -90.6675 113° Southeast 291 335 4,000 -290 Descending Houston Center
06:11PM 29.9392 -90.6208 105° East 292 336 3,900  Descending Houston Center
06:11PM 29.9269 -90.5797 109° East 286 329 4,000 -97 Climbing Houston Center
06:12PM 29.9181 -90.5328 102° East 289 333 3,800 -985 Descending Houston Center
06:12PM 29.9056 -90.4797 105° East 278 320 2,900 -1,452 Descending Houston Center
06:13PM 29.8986 -90.4461 103° East 286 329 2,300 -885 Descending Houston Center
06:13PM 29.8906 -90.3989 101° East 255 293 2,000 -387 Descending Houston Center
06:14PM 29.8925 -90.3708 85° East 264 304 1,900  Descending Houston Center
06:14PM 29.8947 -90.3267 87° East 218 251 2,000 -95 Climbing Houston Center
06:15PM 29.8994 -90.2903 81° East 228 262 1,800 -600 Descending Houston Center
06:15PM 29.9161 -90.2731 42° Northeast 172 198 1,400 -774 Descending Houston Center
06:16PM 29.9361 -90.2675 14° North 173 199 1,000 -677 Descending Houston Center
06:17PM 29.9511 -90.2622 17° North 124 143 700 -677 Descending Houston Center
06:17PM 29.9714 -90.2553 17° North 148 170 300 -667 Descending Houston Center
06:19PM 29.9833 -90.2500 58° Northeast  Level FlightAware Approximate